QTR93W OTHH-VABB
Flight info
| Callsign | QTR93W |
|---|---|
| Flight time | N/A |
| Altitude | 35000 |
| Route | KUPRO N300 NOLSU/N0491F390 DCT TONVO P307 VAXIM L301 KARKU M638 EXOLU POKON2A |
| Aircraft | A35K/H-SDE2E3GHIJ3J4J5LM1ORWXY/LB1D1 |
Departure
| Time | 2026-05-06 11:06 |
|---|---|
| Airport | Hamad International Airport (OTHH) |
Arrival
| Time | N/A |
|---|---|
| Airport | Chhatrapati Shivaji Maharaj International Airport (VABB) |
| Time | Latitude | Longitude | Altitude | Speed | Heading |
|---|---|---|---|---|---|
| 2026-05-06 10:34 | 25.26384 | 51.61780 | 28 ft | 0 kts | 211° |
| 2026-05-06 10:55 | 25.26395 | 51.61787 | 27 ft | 3 kts | 213° |
| 2026-05-06 10:55 | 25.26411 | 51.61800 | 28 ft | 3 kts | 216° |
| 2026-05-06 10:55 | 25.26428 | 51.61813 | 26 ft | 2 kts | 213° |
| 2026-05-06 10:56 | 25.26443 | 51.61825 | 25 ft | 3 kts | 225° |
| 2026-05-06 10:56 | 25.26455 | 51.61842 | 26 ft | 3 kts | 253° |
| 2026-05-06 10:56 | 25.26456 | 51.61861 | 25 ft | 3 kts | 298° |
| 2026-05-06 10:56 | 25.26445 | 51.61877 | 26 ft | 3 kts | 326° |
| 2026-05-06 10:57 | 25.26427 | 51.61888 | 26 ft | 3 kts | 336° |
| 2026-05-06 10:57 | 25.26408 | 51.61896 | 26 ft | 3 kts | 339° |
| 2026-05-06 10:57 | 25.26394 | 51.61902 | 26 ft | 0 kts | 338° |
| 2026-05-06 10:59 | 25.26400 | 51.61900 | 26 ft | 2 kts | 337° |
| 2026-05-06 10:59 | 25.26427 | 51.61886 | 25 ft | 9 kts | 336° |
| 2026-05-06 11:00 | 25.26491 | 51.61867 | 27 ft | 10 kts | 5° |
| 2026-05-06 11:00 | 25.26527 | 51.61918 | 28 ft | 8 kts | 81° |
| 2026-05-06 11:00 | 25.26495 | 51.61965 | 28 ft | 9 kts | 148° |
| 2026-05-06 11:00 | 25.26422 | 51.61998 | 28 ft | 14 kts | 158° |
| 2026-05-06 11:01 | 25.26313 | 51.62046 | 28 ft | 19 kts | 158° |
| 2026-05-06 11:01 | 25.26186 | 51.62102 | 29 ft | 20 kts | 158° |
| 2026-05-06 11:01 | 25.26051 | 51.62161 | 29 ft | 22 kts | 158° |
| 2026-05-06 11:01 | 25.25905 | 51.62225 | 28 ft | 23 kts | 158° |
| 2026-05-06 11:02 | 25.25751 | 51.62293 | 28 ft | 25 kts | 158° |
| 2026-05-06 11:02 | 25.25590 | 51.62365 | 28 ft | 18 kts | 158° |
| 2026-05-06 11:02 | 25.25487 | 51.62419 | 28 ft | 13 kts | 133° |
| 2026-05-06 11:02 | 25.25491 | 51.62512 | 28 ft | 13 kts | 69° |
| 2026-05-06 11:03 | 25.25502 | 51.62542 | 28 ft | 0 kts | 69° |
| 2026-05-06 11:03 | 25.25505 | 51.62549 | 28 ft | 3 kts | 69° |
| 2026-05-06 11:04 | 25.25521 | 51.62596 | 28 ft | 10 kts | 69° |
| 2026-05-06 11:04 | 25.25564 | 51.62668 | 29 ft | 10 kts | 20° |
| 2026-05-06 11:04 | 25.25622 | 51.62660 | 29 ft | 0 kts | 341° |
| 2026-05-06 11:05 | 25.25623 | 51.62659 | 29 ft | 1 kts | 341° |
| 2026-05-06 11:05 | 25.25625 | 51.62659 | 29 ft | 0 kts | 341° |
| 2026-05-06 11:05 | 25.25648 | 51.62650 | 29 ft | 12 kts | 341° |
| 2026-05-06 11:05 | 25.25790 | 51.62588 | 28 ft | 31 kts | 338° |
| 2026-05-06 11:06 | 25.26166 | 51.62423 | 29 ft | 91 kts | 338° |
| 2026-05-06 11:06 | 25.26949 | 51.62076 | 29 ft | 150 kts | 338° |
| 2026-05-06 11:06 | 25.28021 | 51.61598 | 459 ft | 165 kts | 340° |
| 2026-05-06 11:06 | 25.29087 | 51.61123 | 1142 ft | 172 kts | 340° |
| 2026-05-06 11:07 | 25.30241 | 51.60622 | 1480 ft | 183 kts | 340° |
| 2026-05-06 11:07 | 25.31448 | 51.60097 | 1793 ft | 194 kts | 340° |
| 2026-05-06 11:07 | 25.32756 | 51.59517 | 2067 ft | 208 kts | 340° |
| 2026-05-06 11:07 | 25.34142 | 51.58898 | 2360 ft | 220 kts | 339° |
| 2026-05-06 11:08 | 25.35648 | 51.58850 | 2711 ft | 223 kts | 21° |
| 2026-05-06 11:08 | 25.36823 | 51.59913 | 3246 ft | 222 kts | 60° |
| 2026-05-06 11:08 | 25.37108 | 51.61565 | 3740 ft | 224 kts | 98° |
| 2026-05-06 11:08 | 25.36658 | 51.63238 | 3958 ft | 229 kts | 106° |
| 2026-05-06 11:09 | 25.36331 | 51.64953 | 3994 ft | 228 kts | 92° |
| 2026-05-06 11:09 | 25.36362 | 51.66694 | 3996 ft | 227 kts | 81° |
| 2026-05-06 11:09 | 25.36645 | 51.68409 | 3991 ft | 226 kts | 74° |
| 2026-05-06 11:09 | 25.36890 | 51.70129 | 3990 ft | 229 kts | 88° |
| 2026-05-06 11:10 | 25.36661 | 51.71916 | 4008 ft | 248 kts | 102° |
| 2026-05-06 11:10 | 25.36230 | 51.73860 | 4003 ft | 268 kts | 102° |
| 2026-05-06 11:10 | 25.35785 | 51.75883 | 4019 ft | 273 kts | 102° |
| 2026-05-06 11:10 | 25.35352 | 51.77937 | 4297 ft | 276 kts | 101° |
| 2026-05-06 11:11 | 25.34928 | 51.80003 | 4915 ft | 276 kts | 101° |
| 2026-05-06 11:11 | 25.34508 | 51.82075 | 5515 ft | 277 kts | 101° |
| 2026-05-06 11:11 | 25.34090 | 51.84154 | 6091 ft | 278 kts | 101° |
| 2026-05-06 11:11 | 25.33672 | 51.86250 | 6635 ft | 281 kts | 100° |
| 2026-05-06 11:12 | 25.33253 | 51.88371 | 7157 ft | 283 kts | 101° |
| 2026-05-06 11:12 | 25.32826 | 51.90505 | 7687 ft | 286 kts | 101° |
| 2026-05-06 11:12 | 25.32395 | 51.92662 | 8228 ft | 289 kts | 101° |
| 2026-05-06 11:12 | 25.31961 | 51.94834 | 8803 ft | 291 kts | 101° |
| 2026-05-06 11:13 | 25.31523 | 51.97025 | 9369 ft | 293 kts | 101° |
| 2026-05-06 11:13 | 25.31081 | 51.99233 | 9923 ft | 295 kts | 101° |
| 2026-05-06 11:13 | 25.30634 | 52.01468 | 10301 ft | 304 kts | 101° |
| 2026-05-06 11:13 | 25.30174 | 52.03774 | 10528 ft | 318 kts | 101° |
| 2026-05-06 11:14 | 25.29681 | 52.06239 | 10762 ft | 331 kts | 101° |
| 2026-05-06 11:14 | 25.29164 | 52.08771 | 10991 ft | 343 kts | 102° |
| 2026-05-06 11:14 | 25.28464 | 52.11341 | 11203 ft | 356 kts | 107° |
| 2026-05-06 11:14 | 25.27656 | 52.13922 | 11406 ft | 367 kts | 108° |
| 2026-05-06 11:15 | 25.26785 | 52.16665 | 11616 ft | 377 kts | 108° |
| 2026-05-06 11:15 | 25.25914 | 52.19414 | 11923 ft | 383 kts | 108° |
| 2026-05-06 11:15 | 25.25040 | 52.22174 | 12303 ft | 386 kts | 108° |
| 2026-05-06 11:15 | 25.24142 | 52.25014 | 12705 ft | 390 kts | 108° |
| 2026-05-06 11:16 | 25.23256 | 52.27815 | 13096 ft | 392 kts | 108° |
| 2026-05-06 11:16 | 25.22353 | 52.30673 | 13517 ft | 394 kts | 108° |
| 2026-05-06 11:16 | 25.21447 | 52.33536 | 13901 ft | 397 kts | 108° |
| 2026-05-06 11:16 | 25.20534 | 52.36423 | 14278 ft | 398 kts | 108° |
| 2026-05-06 11:17 | 25.19618 | 52.39314 | 14664 ft | 400 kts | 108° |
| 2026-05-06 11:17 | 25.18701 | 52.42222 | 15056 ft | 402 kts | 108° |
| 2026-05-06 11:17 | 25.17779 | 52.45137 | 15442 ft | 404 kts | 108° |
| 2026-05-06 11:17 | 25.16861 | 52.48027 | 15828 ft | 406 kts | 108° |
| 2026-05-06 11:18 | 25.15909 | 52.51021 | 16231 ft | 408 kts | 109° |
| 2026-05-06 11:18 | 25.14970 | 52.53977 | 16627 ft | 410 kts | 109° |
| 2026-05-06 11:18 | 25.14026 | 52.56946 | 17020 ft | 411 kts | 109° |
| 2026-05-06 11:18 | 25.12959 | 52.59887 | 17422 ft | 413 kts | 114° |
| 2026-05-06 11:19 | 25.11747 | 52.62766 | 17807 ft | 415 kts | 116° |
| 2026-05-06 11:19 | 25.10461 | 52.65617 | 18221 ft | 416 kts | 117° |
| 2026-05-06 11:19 | 25.09138 | 52.68466 | 18497 ft | 419 kts | 117° |
| 2026-05-06 11:19 | 25.07795 | 52.71346 | 18741 ft | 424 kts | 117° |
| 2026-05-06 11:20 | 25.06468 | 52.74257 | 19014 ft | 427 kts | 115° |
| 2026-05-06 11:20 | 25.05413 | 52.77337 | 19279 ft | 431 kts | 108° |
| 2026-05-06 11:20 | 25.04550 | 52.80510 | 19567 ft | 434 kts | 106° |
| 2026-05-06 11:20 | 25.03772 | 52.83739 | 19847 ft | 437 kts | 104° |
| 2026-05-06 11:21 | 25.03039 | 52.86994 | 20139 ft | 439 kts | 104° |
| 2026-05-06 11:21 | 25.02319 | 52.90278 | 20425 ft | 442 kts | 104° |
| 2026-05-06 11:21 | 25.01595 | 52.93581 | 20708 ft | 444 kts | 104° |
| 2026-05-06 11:21 | 25.00859 | 52.96902 | 20983 ft | 447 kts | 104° |
| 2026-05-06 11:22 | 25.00113 | 53.00234 | 21250 ft | 450 kts | 104° |
| 2026-05-06 11:22 | 24.99354 | 53.03589 | 21510 ft | 452 kts | 104° |
| 2026-05-06 11:22 | 24.98588 | 53.06960 | 21767 ft | 455 kts | 104° |
| 2026-05-06 11:22 | 24.97813 | 53.10355 | 22037 ft | 458 kts | 104° |
| 2026-05-06 11:23 | 24.97295 | 53.12609 | 22206 ft | 459 kts | 104° |
| 2026-05-06 11:23 | 24.96506 | 53.16030 | 22460 ft | 462 kts | 104° |
| 2026-05-06 11:23 | 24.95451 | 53.20591 | 22793 ft | 465 kts | 105° |
| 2026-05-06 11:23 | 24.94910 | 53.22929 | 22972 ft | 467 kts | 105° |
| 2026-05-06 11:24 | 24.93845 | 53.27536 | 23309 ft | 470 kts | 105° |
| 2026-05-06 11:24 | 24.93036 | 53.31032 | 23520 ft | 472 kts | 105° |
| 2026-05-06 11:24 | 24.92223 | 53.34546 | 23746 ft | 474 kts | 105° |
| 2026-05-06 11:24 | 24.91407 | 53.38071 | 23952 ft | 476 kts | 105° |
| 2026-05-06 11:25 | 24.90586 | 53.41610 | 24161 ft | 478 kts | 105° |
| 2026-05-06 11:25 | 24.90015 | 53.44008 | 24315 ft | 479 kts | 106° |
| 2026-05-06 11:25 | 24.88775 | 53.48681 | 24594 ft | 481 kts | 108° |
| 2026-05-06 11:25 | 24.88119 | 53.51020 | 24734 ft | 482 kts | 108° |
| 2026-05-06 11:26 | 24.87117 | 53.54550 | 24942 ft | 484 kts | 108° |
| 2026-05-06 11:26 | 24.86113 | 53.58092 | 25155 ft | 486 kts | 108° |
| 2026-05-06 11:26 | 24.85114 | 53.61652 | 25355 ft | 488 kts | 108° |
| 2026-05-06 11:26 | 24.84119 | 53.65230 | 25565 ft | 489 kts | 108° |
| 2026-05-06 11:27 | 24.83128 | 53.68819 | 25777 ft | 491 kts | 108° |
| 2026-05-06 11:27 | 24.82135 | 53.72426 | 25981 ft | 493 kts | 108° |
| 2026-05-06 11:27 | 24.81141 | 53.76045 | 26190 ft | 495 kts | 108° |
| 2026-05-06 11:27 | 24.80144 | 53.79674 | 26403 ft | 496 kts | 108° |
| 2026-05-06 11:28 | 24.79143 | 53.83311 | 26611 ft | 498 kts | 108° |
| 2026-05-06 11:28 | 24.78137 | 53.86962 | 26816 ft | 500 kts | 108° |
| 2026-05-06 11:28 | 24.77125 | 53.90629 | 27024 ft | 502 kts | 108° |
| 2026-05-06 11:28 | 24.76210 | 53.94344 | 27216 ft | 505 kts | 103° |
| 2026-05-06 11:29 | 24.75715 | 53.98173 | 27410 ft | 508 kts | 95° |
| 2026-05-06 11:29 | 24.75751 | 54.02070 | 27611 ft | 511 kts | 85° |
| 2026-05-06 11:29 | 24.76365 | 54.05924 | 27809 ft | 513 kts | 75° |
| 2026-05-06 11:29 | 24.77309 | 54.09713 | 28012 ft | 515 kts | 73° |
| 2026-05-06 11:30 | 24.78364 | 54.13481 | 28212 ft | 517 kts | 72° |
| 2026-05-06 11:30 | 24.79470 | 54.17252 | 28396 ft | 519 kts | 71° |
| 2026-05-06 11:30 | 24.80592 | 54.21039 | 28608 ft | 521 kts | 71° |
| 2026-05-06 11:30 | 24.81711 | 54.24842 | 28792 ft | 523 kts | 72° |
| 2026-05-06 11:31 | 24.82821 | 54.28664 | 28992 ft | 525 kts | 72° |
| 2026-05-06 11:31 | 24.83924 | 54.32506 | 29165 ft | 527 kts | 72° |
| 2026-05-06 11:31 | 24.85022 | 54.36361 | 29375 ft | 529 kts | 72° |
| 2026-05-06 11:31 | 24.86120 | 54.40237 | 29553 ft | 531 kts | 72° |
| 2026-05-06 11:32 | 24.87216 | 54.44128 | 29740 ft | 533 kts | 72° |
| 2026-05-06 11:32 | 24.88312 | 54.48015 | 29913 ft | 535 kts | 72° |
| 2026-05-06 11:32 | 24.89418 | 54.51933 | 30081 ft | 537 kts | 72° |
| 2026-05-06 11:32 | 24.90530 | 54.55873 | 30245 ft | 539 kts | 72° |
| 2026-05-06 11:33 | 24.91642 | 54.59818 | 30408 ft | 541 kts | 72° |
| 2026-05-06 11:33 | 24.92743 | 54.63788 | 30580 ft | 542 kts | 74° |
| 2026-05-06 11:33 | 24.93625 | 54.67833 | 30748 ft | 544 kts | 77° |
| 2026-05-06 11:33 | 24.94440 | 54.71916 | 30931 ft | 546 kts | 77° |
| 2026-05-06 11:34 | 24.95226 | 54.76013 | 31102 ft | 548 kts | 78° |
| 2026-05-06 11:34 | 24.95990 | 54.80075 | 31337 ft | 548 kts | 78° |
| 2026-05-06 11:34 | 24.96766 | 54.84227 | 31605 ft | 547 kts | 78° |
| 2026-05-06 11:34 | 24.97536 | 54.88334 | 31853 ft | 547 kts | 78° |
| 2026-05-06 11:35 | 24.98305 | 54.92437 | 32105 ft | 547 kts | 77° |
| 2026-05-06 11:35 | 24.99076 | 54.96548 | 32365 ft | 547 kts | 77° |
| 2026-05-06 11:35 | 24.99846 | 55.00652 | 32625 ft | 547 kts | 77° |
| 2026-05-06 11:35 | 25.00616 | 55.04756 | 32892 ft | 547 kts | 77° |
| 2026-05-06 11:36 | 25.01375 | 55.08805 | 33156 ft | 547 kts | 77° |
| 2026-05-06 11:36 | 25.02122 | 55.12793 | 33422 ft | 546 kts | 77° |
| 2026-05-06 11:36 | 25.02891 | 55.16901 | 33709 ft | 546 kts | 77° |
| 2026-05-06 11:36 | 25.03655 | 55.20992 | 33971 ft | 546 kts | 77° |
| 2026-05-06 11:37 | 25.04424 | 55.25091 | 34256 ft | 545 kts | 77° |
| 2026-05-06 11:37 | 25.05187 | 55.29168 | 34546 ft | 544 kts | 77° |
| 2026-05-06 11:37 | 25.05951 | 55.33266 | 34739 ft | 544 kts | 77° |
| 2026-05-06 11:38 | 25.07474 | 55.41449 | 34755 ft | 545 kts | 77° |
| 2026-05-06 11:38 | 25.08995 | 55.49653 | 34757 ft | 546 kts | 77° |
| 2026-05-06 11:39 | 25.10011 | 55.55140 | 34757 ft | 546 kts | 77° |